West Pittsburg, California
Current Conditions -  °F | °C
As of 7:53 AM on Friday 24 Oct 2014 (Local Time) from KCCR Reporting Station
Clear Clear  
Wind Chill: 52°   Ceiling: Unl
Heat Index: 52°   Visibility: 10mi
Dew Point: 48°   Wind: 5mph
Humidity: 86%   Direction: 170°S
Pressure: 29.98"   Gusts: NA
Location:  38.0121°N, 121.92°W
Report Text: KCCR 241453Z 17004KT 10SM CLR 11/09 A2998 RMK AO2 SLP137 T01110089 53002
Loading
Personal Weather Stations






























Interactive Weather Map
Tropical Storm Tracking
New forecast layout! Learn more

10-Day Weather Forecast

Advertisements
Track Severe Weather on mobile